Time;durP1;ratioP1;P1;durP2;ratioP2;P2;SDS_P1;SDS_P2;PMS_P1;PMS_P2;Temp;Humidity;BMP_temperature;BMP_pressure;BME280_temperature;BME280_humidity;BME280_pressure;Samples;Min_cycle;Max_cycle;Signal;HPM_P1;HPM_P2
2021/05/23 00:00:59;;;;;;;9.05;2.50;;;;;;;6.09;85.37;98850.81;5073014;28;20040;-59
2021/05/23 00:03:24;;;;;;;7.53;2.30;;;;;;;6.13;85.11;98853.81;5073501;28;20028;-59
2021/05/23 00:05:50;;;;;;;4.53;2.30;;;;;;;6.17;84.72;98855.81;5073052;28;20040;-59
2021/05/23 00:08:17;;;;;;;6.63;2.08;;;;;;;6.15;85.05;98855.22;5073108;28;20425;-59
2021/05/23 00:11:09;;;;;;;5.25;2.22;;;;;;;6.14;85.36;98850.94;5072773;28;20078;-60
2021/05/23 00:13:37;;;;;;;6.15;2.40;;;;;;;6.14;85.33;98850.94;5072089;28;20032;-59
2021/05/23 00:16:20;;;;;;;5.50;2.88;;;;;;;6.17;84.89;98852.34;5072894;28;20032;-59
2021/05/23 00:18:51;;;;;;;5.03;2.22;;;;;;;6.15;84.92;98844.56;5073485;28;20059;-59
2021/05/23 00:21:18;;;;;;;8.00;2.25;;;;;;;6.10;85.13;98847.09;5072530;28;20514;-59
2021/05/23 00:23:43;;;;;;;6.75;2.55;;;;;;;6.01;85.53;98837.78;5073091;28;20028;-59
2021/05/23 00:26:09;;;;;;;5.07;2.30;;;;;;;6.01;85.65;98845.75;5072849;28;20102;-59
2021/05/23 00:28:35;;;;;;;5.70;2.05;;;;;;;5.95;85.73;98851.97;5073324;28;20024;-60
2021/05/23 00:31:02;;;;;;;6.03;2.35;;;;;;;5.94;85.84;98853.84;5072479;28;20040;-59
2021/05/23 00:33:27;;;;;;;6.32;2.13;;;;;;;5.91;86.09;98848.09;5073060;28;20073;-60
2021/05/23 00:35:53;;;;;;;9.30;2.60;;;;;;;5.91;85.49;98848.91;5072597;28;20037;-60
2021/05/23 00:38:18;;;;;;;4.13;1.85;;;;;;;5.82;86.52;98845.72;5072978;28;20029;-60
2021/05/23 00:40:43;;;;;;;3.75;2.20;;;;;;;5.80;86.61;98847.78;5072670;28;20110;-60
2021/05/23 00:43:10;;;;;;;7.10;2.10;;;;;;;5.84;86.30;98850.81;5073100;28;20100;-60
2021/05/23 00:45:35;;;;;;;6.60;2.45;;;;;;;5.76;86.81;98846.59;5072500;28;20646;-59
2021/05/23 00:48:01;;;;;;;6.03;2.25;;;;;;;5.81;86.80;98852.06;5073159;28;20042;-59
2021/05/23 00:50:26;;;;;;;7.90;2.17;;;;;;;5.77;86.65;98866.84;5070935;28;20402;-59
2021/05/23 00:52:52;;;;;;;6.05;2.47;;;;;;;5.67;87.48;98863.88;5072862;28;20039;-59
2021/05/23 00:55:19;;;;;;;4.03;2.17;;;;;;;5.61;87.61;98870.06;5071544;28;20028;-60
2021/05/23 00:57:45;;;;;;;4.32;2.28;;;;;;;5.62;87.33;98877.03;5072216;28;20034;-59
2021/05/23 01:00:11;;;;;;;7.50;2.47;;;;;;;5.61;87.88;98870.88;5058408;28;20032;-59
2021/05/23 01:02:54;;;;;;;6.05;2.15;;;;;;;5.54;87.68;98871.97;5076881;28;20474;-59
2021/05/23 01:05:20;;;;;;;6.55;2.40;;;;;;;5.52;87.79;98882.84;5076329;28;20037;-60
2021/05/23 01:07:46;;;;;;;5.40;2.40;;;;;;;5.52;87.95;98882.84;5076464;28;20036;-60
2021/05/23 01:10:14;;;;;;;5.68;2.33;;;;;;;5.56;87.80;98883.22;5076308;28;20071;-59
2021/05/23 01:13:21;;;;;;;4.95;2.08;;;;;;;5.48;87.45;98878.19;5076734;28;20121;-60
2021/05/23 01:15:46;;;;;;;7.00;2.00;;;;;;;5.49;87.67;98875.31;5075979;28;20032;-59
2021/05/23 01:18:21;;;;;;;4.25;2.30;;;;;;;5.50;87.24;98884.09;5075365;28;20456;-59
2021/05/23 01:20:50;;;;;;;5.63;2.30;;;;;;;5.48;87.46;98881.63;5076281;28;20044;-59
2021/05/23 01:23:27;;;;;;;8.55;2.28;;;;;;;5.43;87.71;98880.66;5076344;28;20036;-59
2021/05/23 01:25:56;;;;;;;6.13;2.13;;;;;;;5.53;87.17;98881.00;5076113;28;20517;-59
2021/05/23 01:28:21;;;;;;;3.17;2.13;;;;;;;5.52;87.38;98876.72;5075099;28;20029;-60
2021/05/23 01:30:49;;;;;;;4.43;2.35;;;;;;;5.57;87.42;98884.84;5074437;28;20420;-59
2021/05/23 01:33:15;;;;;;;5.93;2.10;;;;;;;5.53;86.96;98884.47;5058691;28;20130;-59
2021/05/23 01:35:42;;;;;;;6.72;2.30;;;;;;;5.48;87.20;98886.16;5075940;28;20039;-59
2021/05/23 01:38:17;;;;;;;5.30;2.13;;;;;;;5.46;87.20;98893.53;5076024;28;20064;-59
2021/05/23 01:40:43;;;;;;;6.47;2.03;;;;;;;5.43;87.44;98888.66;5075544;28;20037;-59
2021/05/23 01:43:08;;;;;;;6.78;2.17;;;;;;;5.34;87.76;98893.41;5058215;28;20106;-59
2021/05/23 01:45:34;;;;;;;6.35;2.30;;;;;;;5.33;87.97;98900.56;5075674;28;20317;-59
2021/05/23 01:48:00;;;;;;;5.20;2.20;;;;;;;5.33;87.83;98897.91;5074888;28;20493;-59
2021/05/23 01:50:26;;;;;;;6.15;2.40;;;;;;;5.34;88.41;98896.06;5074185;28;20032;-59
2021/05/23 01:53:01;;;;;;;7.43;2.47;;;;;;;5.31;87.85;98892.00;5075883;28;20036;-59
2021/05/23 01:55:27;;;;;;;7.55;2.50;;;;;;;5.39;88.62;98891.75;5075591;28;20037;-59
2021/05/23 01:57:52;;;;;;;5.03;2.40;;;;;;;5.37;87.45;98893.81;5076170;28;20051;-59
2021/05/23 02:00:23;;;;;;;6.40;2.53;;;;;;;5.41;87.90;98896.81;5075687;28;20033;-59
2021/05/23 02:02:48;;;;;;;7.70;2.30;;;;;;;5.40;87.74;98898.69;5075359;28;20035;-59
2021/05/23 02:05:13;;;;;;;6.25;2.67;;;;;;;5.39;88.04;98897.06;5075310;28;20021;-60
2021/05/23 02:07:39;;;;;;;5.80;2.55;;;;;;;5.63;86.96;98897.25;5057626;28;20040;-60
2021/05/23 02:10:09;;;;;;;5.20;2.30;;;;;;;5.53;87.23;98892.44;5074136;28;20383;-59
2021/05/23 02:12:34;;;;;;;4.50;2.50;;;;;;;5.54;87.30;98896.72;5075736;28;20028;-59
2021/05/23 02:15:01;;;;;;;5.07;2.03;;;;;;;5.62;87.41;98895.66;5075674;28;20036;-59
2021/05/23 02:17:27;;;;;;;6.20;2.38;;;;;;;5.55;87.55;98894.88;5075048;28;20078;-59
2021/05/23 02:19:52;;;;;;;8.55;2.42;;;;;;;5.70;88.16;98894.53;5075189;28;20427;-59
2021/05/23 02:22:18;;;;;;;5.82;2.30;;;;;;;5.67;87.30;98890.47;5074794;28;20037;-60
2021/05/23 02:24:44;;;;;;;6.40;2.50;;;;;;;5.66;87.81;98888.84;5075449;28;20024;-60
2021/05/23 02:27:10;;;;;;;3.28;2.08;;;;;;;5.73;87.54;98891.44;5074771;28;20037;-60
2021/05/23 02:29:35;;;;;;;5.70;2.28;;;;;;;5.72;87.58;98895.16;5074518;28;20489;-59
2021/05/23 02:32:04;;;;;;;3.80;2.28;;;;;;;5.89;87.41;98901.53;5074537;28;20029;-60
2021/05/23 02:34:30;;;;;;;5.65;2.10;;;;;;;5.89;87.40;98903.34;5075017;28;20383;-59
2021/05/23 02:36:57;;;;;;;3.78;2.28;;;;;;;5.94;87.52;98898.22;5074506;28;20037;-59
2021/05/23 02:39:23;;;;;;;6.65;2.50;;;;;;;5.95;87.89;98903.31;5074978;28;20103;-59
2021/05/23 02:41:48;;;;;;;5.00;2.28;;;;;;;6.07;86.96;98906.09;5073020;28;20040;-59
2021/05/23 02:44:14;;;;;;;3.40;2.08;;;;;;;6.08;86.95;98907.69;5074907;28;20028;-59
2021/05/23 02:46:39;;;;;;;6.40;2.47;;;;;;;6.11;86.74;98912.56;5074536;28;20037;-59
2021/05/23 02:49:05;;;;;;;5.05;2.15;;;;;;;6.05;87.09;98908.16;5074839;28;20138;-59
2021/05/23 02:51:30;;;;;;;5.20;2.15;;;;;;;6.20;86.77;98899.81;5074149;28;20470;-59
2021/05/23 02:53:56;;;;;;;9.55;2.33;;;;;;;6.24;86.48;98904.47;5073397;28;20032;-60
2021/05/23 02:56:21;;;;;;;5.93;2.33;;;;;;;6.19;86.75;98899.00;5074172;28;20040;-59
2021/05/23 02:58:46;;;;;;;4.82;2.22;;;;;;;6.14;86.61;98906.81;5075443;28;20020;-59
2021/05/23 03:01:12;;;;;;;8.77;2.70;;;;;;;6.14;86.34;98912.16;5076972;28;20041;-60
2021/05/23 03:03:37;;;;;;;3.28;2.10;;;;;;;6.13;86.47;98923.81;5077870;28;20036;-59
2021/05/23 03:06:03;;;;;;;6.03;2.28;;;;;;;5.97;87.11;98921.75;5076031;28;20044;-61
2021/05/23 03:08:28;;;;;;;5.85;2.33;;;;;;;5.99;86.97;98925.81;5073185;28;20040;-60
2021/05/23 03:10:54;;;;;;;4.38;2.15;;;;;;;5.98;87.37;98931.34;5073950;28;20044;-59
2021/05/23 03:13:20;;;;;;;11.00;2.58;;;;;;;5.92;87.48;98934.84;5074401;28;20029;-59
2021/05/23 03:15:46;;;;;;;7.57;2.60;;;;;;;5.96;87.35;98936.06;5073687;28;20048;-59
2021/05/23 03:18:11;;;;;;;7.15;2.40;;;;;;;6.02;87.37;98936.00;5074122;28;20032;-59
2021/05/23 03:20:38;;;;;;;5.80;2.45;;;;;;;6.05;87.16;98948.06;5073417;28;20043;-59
2021/05/23 03:23:03;;;;;;;4.90;2.30;;;;;;;6.11;86.91;98944.50;5074054;28;20036;-59
2021/05/23 03:25:29;;;;;;;5.88;2.80;;;;;;;6.08;87.17;98949.47;5073611;28;20414;-59
2021/05/23 03:27:54;;;;;;;5.75;2.55;;;;;;;6.10;87.50;98948.22;5073973;28;20024;-59
2021/05/23 03:30:22;;;;;;;7.50;2.60;;;;;;;6.10;87.40;98956.19;5071949;28;20051;-59
2021/05/23 03:32:48;;;;;;;11.27;2.53;;;;;;;6.20;87.03;98953.84;5073756;28;20020;-59
2021/05/23 03:35:14;;;;;;;7.28;2.35;;;;;;;6.20;87.02;98964.47;5073334;28;20032;-59
2021/05/23 03:37:39;;;;;;;7.68;3.03;;;;;;;6.22;86.98;98959.75;5074093;28;20403;-59
2021/05/23 03:40:05;;;;;;;3.95;2.42;;;;;;;6.32;86.81;98961.09;5073281;28;20398;-60
2021/05/23 03:42:31;;;;;;;6.45;2.67;;;;;;;6.37;86.67;98964.72;5073983;28;20387;-59
2021/05/23 03:44:56;;;;;;;6.00;2.60;;;;;;;6.44;86.42;98967.28;5073712;28;20032;-59
2021/05/23 03:47:22;;;;;;;10.07;3.20;;;;;;;6.44;86.61;98964.63;5073238;28;20051;-59
2021/05/23 03:49:47;;;;;;;5.68;2.65;;;;;;;6.48;86.53;98971.16;5073534;28;20051;-59
2021/05/23 03:52:13;;;;;;;3.70;2.60;;;;;;;6.53;86.13;98975.81;5073091;28;20033;-59
2021/05/23 03:54:38;;;;;;;5.05;2.55;;;;;;;6.57;86.30;98983.13;5072259;28;20139;-59
2021/05/23 03:57:04;;;;;;;7.57;2.60;;;;;;;6.57;86.59;98985.78;5073250;28;20044;-59
2021/05/23 03:59:29;;;;;;;6.03;2.80;;;;;;;6.57;86.75;98985.78;5073440;28;20494;-60
2021/05/23 04:01:55;;;;;;;6.38;3.00;;;;;;;6.58;86.49;98992.72;5072958;28;20052;-59
2021/05/23 04:04:22;;;;;;;7.68;2.83;;;;;;;6.64;86.54;98997.19;5073333;28;20024;-59
2021/05/23 04:06:49;;;;;;;7.15;2.78;;;;;;;6.62;86.75;99004.59;5072620;28;20494;-59
2021/05/23 04:09:14;;;;;;;5.00;2.88;;;;;;;6.61;86.11;98986.97;5073269;28;20467;-60
2021/05/23 04:11:43;;;;;;;5.18;2.67;;;;;;;6.68;86.31;98986.91;5071392;28;20043;-59
2021/05/23 04:14:10;;;;;;;5.75;3.40;;;;;;;6.77;85.63;98988.22;5073373;28;20063;-59
2021/05/23 04:16:35;;;;;;;7.13;2.85;;;;;;;6.76;86.00;98983.13;5072608;28;20459;-59
2021/05/23 04:19:00;;;;;;;8.02;2.65;;;;;;;6.90;85.24;98977.41;5073140;28;20143;-59
2021/05/23 04:21:26;;;;;;;7.22;2.75;;;;;;;6.93;85.15;98989.47;5072852;28;20366;-59
2021/05/23 04:23:51;;;;;;;5.70;3.42;;;;;;;6.86;85.70;98994.88;5073314;28;20474;-59
2021/05/23 04:26:17;;;;;;;5.95;2.72;;;;;;;6.96;85.19;99002.31;5071232;28;20094;-59
2021/05/23 04:28:42;;;;;;;4.25;2.55;;;;;;;6.94;85.38;99001.75;5073139;28;20036;-59
2021/05/23 04:31:08;;;;;;;8.38;3.03;;;;;;;6.91;85.33;99008.34;5072396;28;20032;-59
2021/05/23 04:33:33;;;;;;;5.43;2.80;;;;;;;6.91;85.21;99018.16;5072493;28;20029;-59
2021/05/23 04:35:58;;;;;;;7.78;2.65;;;;;;;6.91;85.45;99018.16;5072598;28;20044;-59
2021/05/23 04:38:24;;;;;;;6.13;2.90;;;;;;;6.86;85.79;99015.38;5073168;28;20036;-59
2021/05/23 04:40:49;;;;;;;4.22;2.40;;;;;;;6.82;85.41;99030.19;5072590;28;20040;-60
2021/05/23 04:43:15;;;;;;;10.07;3.03;;;;;;;6.81;85.50;99033.88;5073022;28;20421;-59
2021/05/23 04:45:40;;;;;;;6.88;2.92;;;;;;;6.73;85.95;99032.31;5072390;28;20402;-59
2021/05/23 04:48:06;;;;;;;6.00;2.67;;;;;;;6.76;85.68;99044.38;5073238;28;20082;-59
2021/05/23 04:50:32;;;;;;;6.95;3.00;;;;;;;6.76;85.55;99047.03;5072611;28;20086;-59
2021/05/23 04:52:57;;;;;;;5.70;2.90;;;;;;;6.75;85.52;99045.44;5072845;28;20071;-59
2021/05/23 04:55:23;;;;;;;5.70;3.42;;;;;;;6.76;85.41;99049.69;5071280;28;20037;-60
2021/05/23 04:57:48;;;;;;;8.38;2.78;;;;;;;6.79;85.13;99062.56;5071598;28;20021;-59
2021/05/23 05:00:14;;;;;;;4.82;2.85;;;;;;;6.85;84.84;99056.38;5072232;28;20027;-59
2021/05/23 05:02:41;;;;;;;10.52;2.97;;;;;;;6.97;84.94;99065.25;5072729;28;20025;-59
2021/05/23 05:05:08;;;;;;;4.78;2.70;;;;;;;7.80;80.92;99069.06;5072221;28;20024;-59
2021/05/23 05:07:33;;;;;;;5.45;2.72;;;;;;;8.97;76.71;99071.00;5072365;28;20040;-59
2021/05/23 05:09:58;;;;;;;5.43;2.20;;;;;;;10.07;71.27;99071.72;5072735;28;20024;-60
2021/05/23 05:12:24;;;;;;;7.82;2.50;;;;;;;11.81;65.93;99078.56;5072335;28;20044;-60
2021/05/23 05:14:49;;;;;;;4.40;2.10;;;;;;;11.89;64.88;99082.69;5072547;28;20024;-60
2021/05/23 05:17:15;;;;;;;4.88;2.25;;;;;;;12.63;63.46;99089.97;5072074;28;20033;-59
2021/05/23 05:19:40;;;;;;;3.13;2.00;;;;;;;12.47;63.29;99084.50;5072458;28;20078;-59
2021/05/23 05:22:06;;;;;;;4.10;2.00;;;;;;;16.04;52.32;99090.19;5072083;28;20040;-59
2021/05/23 05:24:31;;;;;;;5.20;2.00;;;;;;;15.49;52.10;99094.84;5072623;28;20029;-59
2021/05/23 05:26:57;;;;;;;5.22;1.80;;;;;;;16.21;50.42;99103.34;5071942;28;20032;-59
2021/05/23 05:29:23;;;;;;;6.10;1.70;;;;;;;14.56;54.45;99105.09;5072479;28;20028;-59
2021/05/23 05:31:48;;;;;;;4.32;1.92;;;;;;;13.75;58.46;99112.06;5070805;28;20044;-59
2021/05/23 05:34:14;;;;;;;4.70;2.00;;;;;;;14.81;54.34;99117.75;5072334;28;20025;-59
2021/05/23 05:36:39;;;;;;;3.10;1.90;;;;;;;15.20;53.32;99109.03;5071958;28;20033;-59
2021/05/23 05:39:06;;;;;;;3.45;1.90;;;;;;;16.02;49.94;99113.19;5071131;28;20032;-59
2021/05/23 05:41:31;;;;;;;3.72;1.60;;;;;;;17.32;48.30;99124.16;5072222;28;20055;-59
2021/05/23 05:43:57;;;;;;;4.10;2.00;;;;;;;17.65;46.31;99118.91;5072438;28;20467;-59
2021/05/23 05:46:22;;;;;;;4.80;1.80;;;;;;;17.19;48.17;99116.75;5074508;28;20483;-60
2021/05/23 05:48:48;;;;;;;7.28;1.73;;;;;;;16.33;49.84;99120.00;5075647;28;20020;-60
2021/05/23 05:51:13;;;;;;;6.03;2.03;;;;;;;17.93;45.68;99129.94;5075371;28;20479;-59
2021/05/23 05:53:38;;;;;;;3.22;1.90;;;;;;;17.42;46.71;99129.50;5075836;28;20047;-59
2021/05/23 05:56:04;;;;;;;5.60;1.90;;;;;;;17.94;46.08;99134.25;5075262;28;20036;-59
2021/05/23 05:58:30;;;;;;;4.30;1.90;;;;;;;17.04;46.76;99132.06;5075711;28;20024;-59
2021/05/23 06:00:55;;;;;;;4.40;1.67;;;;;;;19.41;42.60;99135.53;5075192;28;20051;-59
2021/05/23 06:03:21;;;;;;;5.22;1.70;;;;;;;17.63;46.99;99148.19;5075471;28;20044;-59
2021/05/23 06:05:46;;;;;;;4.55;1.60;;;;;;;15.57;50.58;99126.66;5074945;28;20505;-59
2021/05/23 06:08:11;;;;;;;5.97;1.70;;;;;;;14.37;52.54;99139.84;5075327;28;20051;-59
2021/05/23 06:10:37;;;;;;;5.00;1.90;;;;;;;15.90;47.93;99145.97;5075050;28;20036;-59
2021/05/23 06:13:04;;;;;;;6.47;1.67;;;;;;;14.30;52.41;99147.41;5074079;28;20446;-59
2021/05/23 06:15:30;;;;;;;4.40;1.60;;;;;;;16.93;43.81;99154.94;5075039;28;20486;-59
2021/05/23 06:17:55;;;;;;;4.65;1.83;;;;;;;18.95;38.44;99161.69;5075221;28;20115;-59
2021/05/23 06:20:21;;;;;;;3.33;1.50;;;;;;;19.60;36.32;99162.59;5075062;28;20110;-59
2021/05/23 06:22:46;;;;;;;3.78;1.75;;;;;;;17.65;40.71;99170.41;5073935;28;20028;-60
2021/05/23 06:25:12;;;;;;;3.35;1.60;;;;;;;18.49;37.93;99167.03;5075010;28;20036;-59
2021/05/23 06:27:38;;;;;;;2.95;1.60;;;;;;;17.19;40.85;99168.22;5074718;28;20046;-59
2021/05/23 06:30:05;;;;;;;5.82;1.67;;;;;;;19.82;35.23;99180.94;5073340;28;20031;-60
2021/05/23 06:32:31;;;;;;;4.35;1.60;;;;;;;17.93;38.75;99178.75;5074999;28;20029;-59
2021/05/23 06:34:56;;;;;;;4.00;1.60;;;;;;;18.98;36.44;99183.91;5074917;28;20070;-60
2021/05/23 06:37:21;;;;;;;3.33;1.45;;;;;;;19.40;36.56;99180.94;5074362;28;20040;-59
2021/05/23 06:39:47;;;;;;;5.35;1.85;;;;;;;19.28;35.20;99187.97;5074842;28;20017;-59
2021/05/23 06:42:12;;;;;;;3.50;1.60;;;;;;;19.04;35.07;99188.94;5074447;28;20059;-59
2021/05/23 06:44:38;;;;;;;3.80;1.38;;;;;;;17.40;37.52;99187.78;5074752;28;20025;-59
2021/05/23 06:47:03;;;;;;;4.03;1.60;;;;;;;16.59;38.79;99182.81;5074447;28;20025;-59
2021/05/23 06:49:28;;;;;;;6.40;1.73;;;;;;;15.21;43.09;99186.22;5074896;28;20029;-60
2021/05/23 06:51:54;;;;;;;3.00;1.50;;;;;;;19.18;35.92;99200.63;5072940;28;20055;-59
2021/05/23 06:54:20;;;;;;;3.22;1.50;;;;;;;20.89;32.58;99202.13;5074538;28;20059;-59
2021/05/23 06:56:45;;;;;;;5.90;2.00;;;;;;;20.94;32.61;99217.56;5073748;28;20395;-59
2021/05/23 06:59:11;;;;;;;4.13;1.70;;;;;;;18.56;34.82;99210.09;5074512;28;20032;-60
2021/05/23 07:01:37;;;;;;;5.90;1.95;;;;;;;19.67;33.34;99205.69;5073803;28;20679;-60
2021/05/23 07:04:02;;;;;;;4.63;1.55;;;;;;;19.37;33.71;99213.34;5073390;28;20016;-59
2021/05/23 07:06:28;;;;;;;5.68;1.73;;;;;;;20.28;33.58;99211.78;5074009;28;20040;-59
2021/05/23 07:08:53;;;;;;;6.88;1.80;;;;;;;20.41;31.98;99219.88;5072826;28;20052;-60
2021/05/23 07:11:19;;;;;;;4.70;1.60;;;;;;;19.70;32.92;99224.16;5073800;28;20037;-59
2021/05/23 07:13:44;;;;;;;4.65;1.70;;;;;;;19.36;33.93;99219.88;5072920;28;20025;-59
2021/05/23 07:16:10;;;;;;;4.30;1.73;;;;;;;20.26;32.21;99218.31;5073736;28;20041;-59
2021/05/23 07:18:35;;;;;;;3.17;1.50;;;;;;;18.92;33.89;99224.75;5072798;28;20046;-59
2021/05/23 07:21:01;;;;;;;4.57;1.70;;;;;;;20.20;33.02;99235.06;5073644;28;20032;-60
2021/05/23 07:23:27;;;;;;;3.78;1.50;;;;;;;18.82;33.83;99230.34;5074122;28;20493;-59
2021/05/23 07:25:52;;;;;;;4.53;1.55;;;;;;;19.53;33.27;99232.88;5073546;28;20036;-59
2021/05/23 07:28:18;;;;;;;4.90;1.65;;;;;;;19.11;33.48;99235.53;5073950;28;20028;-59
2021/05/23 07:30:43;;;;;;;5.57;1.63;;;;;;;20.06;31.82;99229.66;5073294;28;20044;-59
2021/05/23 07:33:09;;;;;;;6.10;1.60;;;;;;;18.84;33.81;99235.47;5073968;28;20032;-59
2021/05/23 07:35:34;;;;;;;4.93;1.52;;;;;;;18.96;33.90;99241.22;5073427;28;20475;-59
2021/05/23 07:38:00;;;;;;;4.43;1.77;;;;;;;18.26;35.81;99239.31;5073800;28;20463;-59
2021/05/23 07:40:25;;;;;;;6.30;1.55;;;;;;;19.37;34.57;99240.53;5073129;28;20479;-59
2021/05/23 07:42:51;;;;;;;4.25;1.63;;;;;;;18.53;34.77;99228.59;5073600;28;20039;-59
2021/05/23 07:45:16;;;;;;;3.55;1.67;;;;;;;19.59;32.99;99229.78;5073127;28;20025;-59
2021/05/23 07:47:42;;;;;;;5.78;1.63;;;;;;;20.38;30.89;99231.38;5073694;28;20035;-59
2021/05/23 07:50:12;;;;;;;5.10;1.42;;;;;;;21.53;29.84;99226.38;5055156;28;20029;-59
2021/05/23 07:52:37;;;;;;;4.95;1.60;;;;;;;20.33;30.77;99233.41;5073572;28;20021;-60
2021/05/23 07:55:04;;;;;;;3.92;1.45;;;;;;;16.59;38.52;99228.81;5073011;28;20027;-59
2021/05/23 07:57:29;;;;;;;3.55;1.55;;;;;;;15.62;40.67;99226.59;5073549;28;20324;-59
2021/05/23 07:59:55;;;;;;;2.95;1.38;;;;;;;16.75;39.07;99234.13;5073272;28;20031;-59
2021/05/23 08:02:20;;;;;;;3.67;1.67;;;;;;;15.85;39.44;99232.47;5072935;28;20051;-59
2021/05/23 08:04:45;;;;;;;3.25;1.40;;;;;;;17.69;36.24;99236.47;5072001;28;20025;-59
2021/05/23 08:07:11;;;;;;;3.10;1.40;;;;;;;17.06;37.85;99229.28;5072250;28;20056;-59
2021/05/23 08:09:36;;;;;;;3.63;1.60;;;;;;;18.24;34.61;99236.88;5071792;28;20021;-59
2021/05/23 08:12:02;;;;;;;3.65;1.50;;;;;;;19.06;34.09;99248.41;5071236;28;20048;-59
2021/05/23 08:14:27;;;;;;;4.38;1.50;;;;;;;18.70;34.73;99249.78;5073017;28;20025;-59
2021/05/23 08:16:53;;;;;;;5.10;1.38;;;;;;;16.48;39.65;99240.81;5072541;28;20036;-59
2021/05/23 08:19:19;;;;;;;3.03;1.42;;;;;;;17.32;38.23;99245.25;5072936;28;20028;-59
2021/05/23 08:21:45;;;;;;;4.93;1.52;;;;;;;15.52;43.04;99234.72;5056729;28;20094;-59
2021/05/23 08:24:10;;;;;;;3.95;1.50;;;;;;;14.96;43.22;99237.53;5052975;28;20104;-59
2021/05/23 08:26:36;;;;;;;5.72;1.65;;;;;;;18.04;37.13;99242.56;5034700;28;20041;-59
2021/05/23 08:29:01;;;;;;;5.45;1.55;;;;;;;15.77;40.49;99241.16;5052820;28;20021;-59
2021/05/23 08:31:27;;;;;;;3.78;1.60;;;;;;;16.08;41.13;99253.47;5052488;28;20037;-59
2021/05/23 08:33:52;;;;;;;3.30;1.52;;;;;;;16.00;39.98;99253.22;5051648;28;20021;-59
2021/05/23 08:36:18;;;;;;;6.28;1.70;;;;;;;15.35;42.34;99247.75;5052579;28;20037;-60
2021/05/23 08:38:43;;;;;;;3.80;1.70;;;;;;;14.32;45.28;99249.59;5052830;28;20048;-59
2021/05/23 08:41:09;;;;;;;3.70;1.88;;;;;;;13.85;46.57;99254.00;5052421;28;20045;-59
2021/05/23 08:43:35;;;;;;;5.32;1.80;;;;;;;13.87;49.20;99264.53;5052871;28;20494;-59
2021/05/23 08:46:01;;;;;;;6.80;1.90;;;;;;;16.29;42.42;99264.97;5052499;28;20029;-59
2021/05/23 08:48:26;;;;;;;3.25;1.70;;;;;;;16.98;40.76;99265.88;5052772;28;20108;-59
2021/05/23 08:50:52;;;;;;;5.70;2.00;;;;;;;17.40;39.24;99272.56;5052399;28;20040;-59
2021/05/23 08:53:17;;;;;;;5.35;1.98;;;;;;;17.64;37.84;99277.19;5052773;28;20029;-58
2021/05/23 08:55:44;;;;;;;5.65;1.70;;;;;;;16.97;37.68;99264.28;5052198;28;20033;-59
2021/05/23 08:58:10;;;;;;;3.20;1.50;;;;;;;16.78;39.85;99274.19;5052594;28;20036;-59
2021/05/23 09:00:35;;;;;;;4.35;1.60;;;;;;;15.06;42.71;99275.31;5052453;28;20044;-59
2021/05/23 09:03:10;;;;;;;4.60;1.60;;;;;;;14.57;44.46;99278.53;5052735;28;20025;-59
2021/05/23 09:05:37;;;;;;;3.35;1.60;;;;;;;14.67;45.56;99283.94;5052281;28;20039;-58
2021/05/23 09:08:04;;;;;;;4.30;1.90;;;;;;;14.32;47.00;99277.34;5052535;28;20045;-60
2021/05/23 09:10:33;;;;;;;5.63;2.00;;;;;;;14.40;47.43;99290.34;5050616;28;20068;-61
2021/05/23 09:12:59;;;;;;;4.90;1.87;;;;;;;14.27;48.42;99285.44;5052491;28;20025;-61
2021/05/23 09:15:24;;;;;;;4.55;1.85;;;;;;;13.85;48.32;99278.25;5034256;28;20036;-58
2021/05/23 09:18:09;;;;;;;4.50;1.95;;;;;;;14.08;47.25;99295.91;5052696;28;20071;-61
2021/05/23 09:20:36;;;;;;;5.85;1.90;;;;;;;16.41;42.42;99293.59;5055442;28;20057;-61
2021/05/23 09:23:07;;;;;;;3.45;1.90;;;;;;;17.50;41.01;99287.06;5056293;28;20057;-61
2021/05/23 09:25:33;;;;;;;3.53;1.58;;;;;;;16.10;41.13;99286.44;5056001;28;20040;-59
2021/05/23 09:27:59;;;;;;;5.03;1.70;;;;;;;15.97;40.71;99295.13;5056279;28;20029;-59
2021/05/23 09:30:27;;;;;;;9.98;1.92;;;;;;;15.24;42.72;99301.75;5055602;28;20102;-59
2021/05/23 09:32:55;;;;;;;4.15;1.70;;;;;;;14.45;44.15;99298.44;5056008;28;20109;-59
2021/05/23 09:35:20;;;;;;;4.82;1.80;;;;;;;14.02;45.20;99300.44;5054502;28;22815;-60
2021/05/23 09:38:05;;;;;;;4.00;1.70;;;;;;;14.16;45.92;99305.34;5055980;28;20032;-58
2021/05/23 09:40:38;;;;;;;4.53;2.10;;;;;;;13.80;46.93;99308.69;5054566;28;20029;-60
2021/05/23 09:43:05;;;;;;;5.13;1.80;;;;;;;13.84;46.79;99294.72;5056029;28;20112;-59
2021/05/23 09:45:41;;;;;;;5.53;2.05;;;;;;;13.92;45.69;99297.69;5055304;28;20475;-59
2021/05/23 09:48:07;;;;;;;4.22;1.90;;;;;;;14.33;45.79;99305.16;5055799;28;20123;-60
2021/05/23 09:50:40;;;;;;;8.35;2.00;;;;;;;14.73;45.07;99312.56;5055430;28;20040;-59
2021/05/23 09:53:17;;;;;;;3.58;1.73;;;;;;;14.87;44.13;99316.31;5054434;28;20116;-60
2021/05/23 09:56:06;;;;;;;6.03;1.80;;;;;;;16.32;40.24;99315.00;5055364;28;20113;-60
2021/05/23 09:58:36;;;;;;;7.03;1.90;;;;;;;15.38;43.31;99318.22;5055742;28;20212;-59
2021/05/23 10:01:22;;;;;;;4.05;1.60;;;;;;;15.00;43.33;99319.56;5055314;28;20120;-59
2021/05/23 10:03:48;;;;;;;5.18;1.90;;;;;;;14.88;44.30;99317.16;5055696;28;20380;-60
2021/05/23 10:06:13;;;;;;;7.40;2.10;;;;;;;15.27;42.68;99309.31;5053990;28;20047;-59
2021/05/23 10:08:39;;;;;;;6.45;1.95;;;;;;;14.92;43.16;99317.41;5037578;28;20079;-59
2021/05/23 10:11:05;;;;;;;3.20;1.75;;;;;;;14.85;44.06;99318.50;5053698;28;20091;-58
2021/05/23 10:13:30;;;;;;;4.07;1.85;;;;;;;14.80;45.46;99315.78;5055343;28;20060;-59
2021/05/23 10:15:56;;;;;;;3.85;1.60;;;;;;;14.77;45.01;99310.91;5049062;28;20040;-59
2021/05/23 10:18:25;;;;;;;4.97;1.63;;;;;;;14.77;46.07;99321.72;5035447;28;20033;-59
2021/05/23 10:20:55;;;;;;;5.00;2.30;;;;;;;14.41;47.43;99321.59;5033825;28;20487;-59
2021/05/23 10:23:30;;;;;;;3.10;1.60;;;;;;;14.37;47.10;99323.19;5035306;28;20035;-59
2021/05/23 10:25:57;;;;;;;5.88;1.85;;;;;;;14.58;45.77;99324.13;5033593;28;20515;-59
2021/05/23 10:28:23;;;;;;;5.72;1.77;;;;;;;15.11;45.49;99323.91;5033918;28;20423;-59
2021/05/23 10:30:52;;;;;;;4.40;1.77;;;;;;;14.86;45.07;99325.50;5032719;28;20083;-59
2021/05/23 10:33:19;;;;;;;4.90;1.80;;;;;;;14.75;44.70;99329.28;5033825;28;20045;-59
2021/05/23 10:35:46;;;;;;;3.10;1.73;;;;;;;14.41;45.67;99332.41;5034687;28;20032;-59
2021/05/23 10:38:14;;;;;;;2.92;1.50;;;;;;;14.84;45.26;99341.16;5033650;28;20116;-59
2021/05/23 10:40:59;;;;;;;6.60;1.98;;;;;;;14.87;45.13;99340.59;5039974;28;20132;-60
2021/05/23 10:43:29;;;;;;;5.15;1.70;;;;;;;14.69;44.47;99348.41;5053720;28;20021;-59
2021/05/23 10:46:11;;;;;;;4.00;2.42;;;;;;;14.72;44.29;99345.19;5053149;28;20056;-59
2021/05/23 10:48:36;;;;;;;4.28;1.58;;;;;;;14.79;44.75;99348.44;5054661;28;20115;-59
2021/05/23 10:51:15;;;;;;;6.35;1.80;;;;;;;14.68;45.71;99347.59;5054111;28;20040;-59
2021/05/23 10:53:41;;;;;;;4.05;1.58;;;;;;;14.35;46.51;99341.56;5054745;28;20067;-59
2021/05/23 10:56:29;;;;;;;4.20;1.70;;;;;;;13.95;46.86;99339.47;5054176;28;20495;-59
2021/05/23 10:58:55;;;;;;;4.18;1.58;;;;;;;14.05;46.59;99346.78;5054435;28;20024;-59
2021/05/23 11:01:36;;;;;;;4.85;2.03;;;;;;;14.38;46.13;99354.50;5054001;28;20559;-59
2021/05/23 11:04:18;;;;;;;5.85;1.75;;;;;;;14.77;44.67;99361.38;5054372;28;20513;-59
2021/05/23 11:06:45;;;;;;;7.97;1.75;;;;;;;15.10;43.58;99358.19;5052532;28;20053;-59
2021/05/23 11:09:25;;;;;;;2.53;1.38;;;;;;;15.01;42.45;99362.50;5053118;28;20021;-59
2021/05/23 11:11:50;;;;;;;;;;;;;;;15.09;41.43;99353.84;5054169;28;20043;-58
2021/05/23 11:14:19;;;;;;;3.53;1.55;;;;;;;15.65;41.83;99357.63;5054083;28;20011;-59
2021/05/23 11:16:54;;;;;;;4.70;1.63;;;;;;;15.21;41.85;99358.19;5053715;28;20040;-59
2021/05/23 11:19:20;;;;;;;5.88;2.10;;;;;;;14.88;42.59;99355.72;5054020;28;20467;-59
2021/05/23 11:21:47;;;;;;;5.95;1.60;;;;;;;15.06;42.67;99346.31;5053625;28;20087;-59
2021/05/23 11:24:12;;;;;;;4.10;1.60;;;;;;;15.04;41.17;99345.75;5054026;28;21077;-59
2021/05/23 11:26:38;;;;;;;6.53;1.90;;;;;;;15.18;41.09;99354.16;5052471;28;20044;-59
2021/05/23 11:29:04;;;;;;;5.38;1.40;;;;;;;15.84;41.30;99349.78;5054083;28;20475;-59
2021/05/23 11:31:34;;;;;;;3.63;1.60;;;;;;;15.95;39.36;99346.00;5052088;28;20147;-60
2021/05/23 11:34:00;;;;;;;5.07;1.50;;;;;;;16.74;38.72;99351.56;5052440;28;20052;-59
2021/05/23 11:36:27;;;;;;;4.75;1.70;;;;;;;17.11;38.26;99345.66;5053268;28;20060;-59